createdAt,value
2018-12-30T00:01:06.369Z,4.40
2018-12-30T00:03:39.001Z,4.50
2018-12-30T00:06:11.790Z,4.60
2018-12-30T00:08:44.650Z,4.60
2018-12-30T00:11:17.500Z,4.60
2018-12-30T00:13:50.119Z,4.60
2018-12-30T00:16:22.717Z,4.50
2018-12-30T00:18:55.443Z,4.40
2018-12-30T00:21:28.050Z,4.30
2018-12-30T00:24:00.625Z,4.20
2018-12-30T00:26:33.195Z,4.10
2018-12-30T00:29:06.284Z,4.10
2018-12-30T00:31:38.761Z,4.10
2018-12-30T00:34:11.463Z,4.10
2018-12-30T00:36:43.813Z,4.00
2018-12-30T00:39:16.701Z,4.00
2018-12-30T00:41:49.073Z,4.00
2018-12-30T00:44:21.821Z,4.00
2018-12-30T00:46:54.265Z,4.00
2018-12-30T00:49:27.165Z,4.00
2018-12-30T00:51:59.935Z,3.90
2018-12-30T00:54:51.137Z,4.00
2018-12-30T00:57:23.992Z,4.00
2018-12-30T00:59:56.654Z,4.00
2018-12-30T01:02:29.273Z,3.90
2018-12-30T01:05:01.953Z,4.00
2018-12-30T01:07:35.186Z,3.90
2018-12-30T01:10:08.795Z,3.90
2018-12-30T01:12:41.536Z,3.90
2018-12-30T01:15:14.087Z,3.90
2018-12-30T01:17:46.613Z,3.90
2018-12-30T01:20:19.531Z,3.90
2018-12-30T01:22:52.244Z,3.90
2018-12-30T01:25:24.798Z,3.90
2018-12-30T01:27:57.271Z,3.90
2018-12-30T01:30:30.187Z,3.90
2018-12-30T01:33:13.589Z,3.90
2018-12-30T01:35:46.448Z,4.00
2018-12-30T01:38:18.880Z,4.10
2018-12-30T01:40:51.340Z,4.10
2018-12-30T01:43:24.307Z,4.10
2018-12-30T01:45:56.969Z,4.10
2018-12-30T01:48:29.634Z,4.10
2018-12-30T01:51:02.145Z,4.10
2018-12-30T01:53:34.588Z,4.20
2018-12-30T01:56:07.124Z,4.10
2018-12-30T01:58:39.890Z,4.10
2018-12-30T02:01:12.770Z,4.20
2018-12-30T02:03:56.352Z,4.20
2018-12-30T02:06:29.091Z,4.20
2018-12-30T02:09:02.170Z,4.20
2018-12-30T02:11:34.796Z,4.20
2018-12-30T02:14:07.513Z,4.20
2018-12-30T02:16:39.985Z,4.20
2018-12-30T02:19:13.169Z,4.30
2018-12-30T02:21:56.348Z,4.20
2018-12-30T02:24:36.258Z,4.20
2018-12-30T02:27:09.111Z,4.20
2018-12-30T02:29:53.650Z,4.20
2018-12-30T02:32:26.177Z,4.20
2018-12-30T02:34:59.155Z,4.30
2018-12-30T02:37:31.918Z,4.20
2018-12-30T02:40:04.629Z,4.20
2018-12-30T02:42:37.322Z,4.10
2018-12-30T02:45:10.058Z,4.20
2018-12-30T02:47:42.654Z,4.10
2018-12-30T02:50:15.657Z,4.20
2018-12-30T02:52:48.147Z,4.20
2018-12-30T02:55:20.631Z,4.20
2018-12-30T02:57:53.358Z,4.20
2018-12-30T03:00:26.091Z,4.30
2018-12-30T03:02:58.420Z,4.20
2018-12-30T03:05:31.023Z,4.20
2018-12-30T03:08:03.453Z,4.20
2018-12-30T03:10:36.355Z,4.30
2018-12-30T03:13:09.051Z,4.20
2018-12-30T03:15:48.419Z,4.20
2018-12-30T03:18:21.212Z,4.20
2018-12-30T03:20:54.058Z,4.30
2018-12-30T03:23:26.492Z,4.40
2018-12-30T03:25:58.839Z,4.30
2018-12-30T03:28:43.668Z,4.40
2018-12-30T03:31:16.525Z,4.40
2018-12-30T03:33:49.228Z,4.40
2018-12-30T03:36:21.702Z,4.40
2018-12-30T03:38:54.263Z,4.40
2018-12-30T03:41:27.131Z,4.50
2018-12-30T03:43:59.908Z,4.40
2018-12-30T03:46:32.233Z,4.50
2018-12-30T03:49:04.765Z,4.40
2018-12-30T03:51:37.267Z,4.40
2018-12-30T03:54:17.048Z,4.40
2018-12-30T03:56:49.605Z,4.50
2018-12-30T03:59:22.277Z,4.50
2018-12-30T04:01:54.915Z,4.40
2018-12-30T04:04:27.520Z,4.30
2018-12-30T04:06:59.997Z,4.20
2018-12-30T04:09:32.364Z,4.20
2018-12-30T04:12:05.084Z,4.10
2018-12-30T04:14:37.616Z,4.10
2018-12-30T04:17:10.217Z,4.00
2018-12-30T04:19:43.058Z,4.00
2018-12-30T04:22:17.061Z,4.00
2018-12-30T04:24:49.869Z,3.90
2018-12-30T04:27:24.718Z,3.90
2018-12-30T04:29:57.159Z,3.80
2018-12-30T04:32:29.776Z,3.70
2018-12-30T04:35:02.337Z,3.70
2018-12-30T04:37:47.619Z,3.80
2018-12-30T04:40:19.879Z,3.90
2018-12-30T04:42:52.683Z,3.90
2018-12-30T04:45:25.114Z,3.90
2018-12-30T04:47:57.468Z,3.80
2018-12-30T04:50:29.912Z,3.80
2018-12-30T04:53:08.467Z,3.70
2018-12-30T04:55:40.925Z,3.60
2018-12-30T04:58:13.428Z,3.60
2018-12-30T05:00:46.083Z,3.60
2018-12-30T05:03:18.403Z,3.50
2018-12-30T05:05:50.910Z,3.60
2018-12-30T05:08:23.327Z,3.60
2018-12-30T05:10:55.817Z,3.60
2018-12-30T05:13:28.301Z,3.60
2018-12-30T05:16:00.633Z,3.60
2018-12-30T05:18:33.071Z,3.60
2018-12-30T05:21:06.038Z,3.60
2018-12-30T05:23:38.562Z,3.60
2018-12-30T05:26:10.917Z,3.60
2018-12-30T05:28:43.213Z,3.50
2018-12-30T05:31:16.046Z,3.50
2018-12-30T05:33:48.585Z,3.50
2018-12-30T05:36:21.432Z,3.50
2018-12-30T05:38:53.439Z,3.50
2018-12-30T05:41:26.034Z,3.50
2018-12-30T05:43:58.681Z,3.50
2018-12-30T05:46:31.130Z,3.60
2018-12-30T05:49:03.733Z,3.60
2018-12-30T05:51:36.221Z,3.50
2018-12-30T05:54:08.837Z,3.50
2018-12-30T05:56:41.534Z,3.50
2018-12-30T05:59:13.991Z,3.50
2018-12-30T06:01:46.926Z,3.50
2018-12-30T06:04:19.658Z,3.50
2018-12-30T06:06:52.417Z,3.50
2018-12-30T06:09:24.857Z,3.50
2018-12-30T06:11:57.640Z,3.40
2018-12-30T06:14:30.031Z,3.50
2018-12-30T06:17:02.634Z,3.40
2018-12-30T06:19:35.016Z,3.50
2018-12-30T06:22:07.585Z,3.50
2018-12-30T06:24:40.257Z,3.50
2018-12-30T06:27:12.694Z,3.60
2018-12-30T06:29:45.270Z,3.60
2018-12-30T06:32:17.894Z,3.60
2018-12-30T06:34:50.475Z,3.60
2018-12-30T06:37:23.001Z,3.60
2018-12-30T06:39:55.623Z,3.70
2018-12-30T06:42:28.253Z,3.60
2018-12-30T06:45:00.727Z,3.60
2018-12-30T06:47:33.237Z,3.70
2018-12-30T06:50:05.788Z,3.70
2018-12-30T06:52:38.459Z,3.60
2018-12-30T06:55:11.145Z,3.70
2018-12-30T06:57:43.829Z,3.70
2018-12-30T07:00:16.309Z,3.70
2018-12-30T07:02:49.321Z,3.70
2018-12-30T07:05:21.907Z,3.80
2018-12-30T07:07:54.271Z,3.80
2018-12-30T07:10:26.811Z,3.80
2018-12-30T07:12:59.243Z,3.80
2018-12-30T07:15:31.847Z,3.80
2018-12-30T07:18:04.461Z,3.80
2018-12-30T07:20:37.053Z,3.80
2018-12-30T07:23:09.952Z,3.80
2018-12-30T07:25:42.559Z,3.80
2018-12-30T07:28:14.965Z,3.90
2018-12-30T07:30:47.669Z,3.90
2018-12-30T07:33:20.077Z,3.90
2018-12-30T07:35:52.628Z,3.90
2018-12-30T07:38:25.172Z,4.00
2018-12-30T07:40:57.867Z,4.00
2018-12-30T07:43:30.293Z,4.00
2018-12-30T07:46:02.994Z,4.10
2018-12-30T07:48:35.341Z,4.20
2018-12-30T07:51:07.840Z,4.30
2018-12-30T07:53:40.229Z,4.40
2018-12-30T07:56:12.832Z,4.40
2018-12-30T07:58:45.257Z,4.40
2018-12-30T08:01:17.891Z,4.50
2018-12-30T08:03:50.536Z,4.60
2018-12-30T08:06:23.147Z,4.60
2018-12-30T08:08:56.512Z,4.60
2018-12-30T08:11:29.060Z,4.60
2018-12-30T08:14:01.411Z,4.60
2018-12-30T08:16:34.120Z,4.60
2018-12-30T08:19:06.769Z,4.60
2018-12-30T08:21:40.116Z,4.70
2018-12-30T08:24:12.360Z,4.70
2018-12-30T08:26:44.731Z,4.70
2018-12-30T08:29:17.149Z,4.70
2018-12-30T08:31:49.581Z,4.80
2018-12-30T08:34:21.798Z,4.70
2018-12-30T08:36:54.560Z,4.70
2018-12-30T08:39:27.332Z,4.70
2018-12-30T08:41:59.834Z,4.70
2018-12-30T08:44:32.283Z,4.70
2018-12-30T08:47:04.828Z,4.60
2018-12-30T08:49:37.853Z,4.60
2018-12-30T08:52:10.604Z,4.50
2018-12-30T08:54:43.222Z,4.70
2018-12-30T08:57:15.693Z,4.90
2018-12-30T08:59:48.217Z,5.00
2018-12-30T09:02:20.943Z,5.00
2018-12-30T09:04:53.292Z,5.20
2018-12-30T09:07:25.968Z,5.30
2018-12-30T09:09:58.310Z,5.40
2018-12-30T09:12:30.773Z,5.40
2018-12-30T09:15:03.135Z,5.40
2018-12-30T09:17:35.392Z,5.40
2018-12-30T09:20:07.961Z,5.40
2018-12-30T09:22:40.688Z,5.40
2018-12-30T09:25:13.023Z,5.50
2018-12-30T09:27:45.295Z,5.40
2018-12-30T09:30:17.791Z,5.40
2018-12-30T09:32:51.657Z,5.30
2018-12-30T09:35:23.933Z,5.30
2018-12-30T09:37:57.141Z,5.40
2018-12-30T09:40:29.781Z,5.30
2018-12-30T09:43:02.595Z,5.30
2018-12-30T09:45:35.051Z,5.40
2018-12-30T09:48:08.939Z,5.60
2018-12-30T09:50:41.409Z,5.70
2018-12-30T09:53:14.619Z,5.70
2018-12-30T09:55:47.371Z,5.80
2018-12-30T09:58:19.845Z,5.90
2018-12-30T10:00:52.402Z,6.00
2018-12-30T10:03:24.728Z,6.00
2018-12-30T10:05:57.381Z,6.10
2018-12-30T10:08:29.781Z,6.10
2018-12-30T10:11:02.369Z,6.20
2018-12-30T10:13:34.662Z,6.30
2018-12-30T10:16:06.972Z,6.40
2018-12-30T10:18:41.401Z,6.30
2018-12-30T10:21:14.219Z,6.30
2018-12-30T10:23:52.959Z,6.30
2018-12-30T10:26:20.921Z,6.40
2018-12-30T10:29:05.434Z,6.30
2018-12-30T10:31:37.969Z,6.40
2018-12-30T10:34:10.393Z,6.40
2018-12-30T10:36:42.705Z,6.30
2018-12-30T10:39:17.349Z,6.40
2018-12-30T10:41:50.024Z,6.50
2018-12-30T10:44:23.071Z,6.60
2018-12-30T10:46:55.594Z,6.70
2018-12-30T10:49:28.073Z,6.70
2018-12-30T10:52:00.957Z,6.70
2018-12-30T10:54:33.865Z,6.70
2018-12-30T10:57:06.528Z,6.50
2018-12-30T10:59:40.218Z,6.60
2018-12-30T11:02:12.550Z,6.40
2018-12-30T11:04:45.033Z,6.40
2018-12-30T11:07:17.896Z,6.30
2018-12-30T11:09:50.584Z,6.20
2018-12-30T11:12:23.203Z,6.20
2018-12-30T11:14:55.812Z,6.20
2018-12-30T11:17:28.199Z,6.30
2018-12-30T11:20:00.663Z,6.20
2018-12-30T11:22:33.241Z,6.10
2018-12-30T11:25:05.811Z,6.10
2018-12-30T11:27:38.467Z,6.00
2018-12-30T11:30:11.738Z,6.00
2018-12-30T11:32:46.006Z,5.90
2018-12-30T11:35:18.682Z,5.90
2018-12-30T11:37:51.290Z,6.00
2018-12-30T11:40:23.873Z,5.90
2018-12-30T11:42:56.435Z,6.00
2018-12-30T11:45:28.891Z,6.00
2018-12-30T11:48:02.818Z,6.00
2018-12-30T11:50:36.553Z,6.00
2018-12-30T11:53:08.922Z,6.00
2018-12-30T11:55:41.295Z,6.00
2018-12-30T11:58:13.827Z,6.00
2018-12-30T12:00:46.358Z,6.00
2018-12-30T12:03:18.863Z,5.90
2018-12-30T12:05:51.985Z,5.90
2018-12-30T12:08:26.076Z,5.80
2018-12-30T12:10:59.112Z,5.80
2018-12-30T12:13:31.806Z,5.80
2018-12-30T12:16:04.607Z,5.90
2018-12-30T12:18:37.153Z,5.90
2018-12-30T12:21:09.475Z,5.90
2018-12-30T12:23:41.921Z,5.80
2018-12-30T12:26:14.472Z,5.80
2018-12-30T12:28:47.224Z,5.70
2018-12-30T12:31:19.772Z,5.80
2018-12-30T12:33:52.387Z,5.80
2018-12-30T12:36:25.763Z,5.80
2018-12-30T12:38:58.142Z,5.80
2018-12-30T12:41:30.556Z,5.80
2018-12-30T12:44:03.330Z,5.80
2018-12-30T12:46:35.676Z,5.80
2018-12-30T12:49:08.168Z,5.80
2018-12-30T12:51:40.801Z,5.80
2018-12-30T12:54:13.435Z,6.00
2018-12-30T12:56:45.841Z,6.00
2018-12-30T12:59:18.164Z,5.90
2018-12-30T13:01:50.656Z,5.90
2018-12-30T13:04:23.200Z,5.90
2018-12-30T13:06:55.672Z,5.90
2018-12-30T13:09:28.613Z,5.80
2018-12-30T13:12:01.159Z,5.90
2018-12-30T13:14:33.483Z,5.80
2018-12-30T13:17:07.502Z,5.90
2018-12-30T13:19:39.820Z,5.90
2018-12-30T13:22:12.479Z,5.80
2018-12-30T13:24:44.998Z,5.80
2018-12-30T13:27:17.327Z,5.80
2018-12-30T13:29:50.193Z,5.80
2018-12-30T13:32:22.613Z,5.70
2018-12-30T13:34:55.156Z,5.80
2018-12-30T13:37:27.821Z,5.70
2018-12-30T13:40:00.838Z,5.80
2018-12-30T13:42:33.537Z,5.80
2018-12-30T13:45:06.499Z,5.80
2018-12-30T13:47:39.150Z,5.80
2018-12-30T13:50:12.003Z,5.80
2018-12-30T13:52:44.573Z,5.70
2018-12-30T13:55:17.089Z,5.70
2018-12-30T13:57:49.563Z,5.70
2018-12-30T14:00:21.946Z,5.70
2018-12-30T14:02:54.346Z,5.70
2018-12-30T14:05:26.905Z,5.60
2018-12-30T14:07:59.853Z,5.60
2018-12-30T14:10:32.401Z,5.60
2018-12-30T14:13:04.989Z,5.60
2018-12-30T14:15:37.628Z,5.50
2018-12-30T14:18:10.239Z,5.60
2018-12-30T14:20:42.889Z,5.60
2018-12-30T14:23:15.360Z,5.50
2018-12-30T14:25:49.951Z,5.50
2018-12-30T14:28:22.595Z,5.50
2018-12-30T14:30:56.592Z,5.50
2018-12-30T14:33:29.261Z,5.50
2018-12-30T14:36:01.957Z,5.60
2018-12-30T14:38:34.349Z,5.60
2018-12-30T14:41:06.966Z,5.70
2018-12-30T14:43:39.754Z,5.70
2018-12-30T14:46:12.182Z,5.70
2018-12-30T14:48:44.699Z,5.70
2018-12-30T14:51:17.394Z,5.80
2018-12-30T14:53:49.964Z,5.70
2018-12-30T14:56:22.743Z,5.70
2018-12-30T14:58:55.493Z,5.70
2018-12-30T15:01:28.345Z,5.70
2018-12-30T15:04:01.025Z,5.60
2018-12-30T15:06:33.871Z,5.70
2018-12-30T15:09:10.411Z,5.60
2018-12-30T15:11:44.449Z,5.60
2018-12-30T15:14:17.262Z,5.60
2018-12-30T15:16:49.748Z,5.60
2018-12-30T15:19:22.324Z,5.60
2018-12-30T15:21:55.161Z,5.60
2018-12-30T15:24:27.665Z,5.60
2018-12-30T15:27:00.464Z,5.60
2018-12-30T15:29:32.757Z,5.60
2018-12-30T15:32:05.229Z,5.60
2018-12-30T15:34:38.067Z,5.70
2018-12-30T15:37:10.782Z,5.70
2018-12-30T15:39:44.203Z,5.70
2018-12-30T15:42:18.935Z,5.60
2018-12-30T15:44:52.355Z,5.60
2018-12-30T15:47:24.725Z,5.60
2018-12-30T15:49:57.285Z,5.60
2018-12-30T15:52:29.814Z,5.70
2018-12-30T15:55:02.413Z,5.60
2018-12-30T15:57:35.034Z,5.60
2018-12-30T16:00:10.485Z,5.60
2018-12-30T16:02:43.328Z,5.60
2018-12-30T16:05:15.658Z,5.70
2018-12-30T16:07:48.108Z,5.60
2018-12-30T16:10:23.138Z,5.60
2018-12-30T16:12:56.463Z,5.60
2018-12-30T16:15:28.748Z,5.60
2018-12-30T16:18:01.320Z,5.60
2018-12-30T16:20:33.957Z,5.50
2018-12-30T16:23:06.319Z,5.50
2018-12-30T16:25:38.877Z,5.50
2018-12-30T16:28:11.652Z,5.50
2018-12-30T16:30:44.409Z,5.40
2018-12-30T16:33:16.974Z,5.50
2018-12-30T16:35:50.650Z,5.50
2018-12-30T16:38:23.499Z,5.50
2018-12-30T16:40:55.897Z,5.50
2018-12-30T16:43:28.428Z,5.50
2018-12-30T16:46:01.140Z,5.50
2018-12-30T16:48:34.023Z,5.40
2018-12-30T16:51:08.285Z,5.40
2018-12-30T16:53:42.385Z,5.60
2018-12-30T16:56:14.846Z,5.60
2018-12-30T16:58:48.084Z,5.60
2018-12-30T17:01:21.006Z,5.60
2018-12-30T17:03:53.704Z,5.60
2018-12-30T17:06:33.889Z,5.70
2018-12-30T17:09:01.305Z,5.80
2018-12-30T17:11:33.792Z,5.70
2018-12-30T17:14:06.358Z,5.80
2018-12-30T17:16:38.828Z,5.80
2018-12-30T17:19:11.205Z,5.70
2018-12-30T17:21:43.824Z,5.80
2018-12-30T17:24:16.467Z,5.80
2018-12-30T17:26:48.976Z,5.90
2018-12-30T17:29:32.711Z,5.90
2018-12-30T17:32:05.765Z,5.90
2018-12-30T17:34:38.559Z,5.90
2018-12-30T17:37:11.031Z,5.90
2018-12-30T17:39:43.373Z,5.90
2018-12-30T17:42:16.068Z,5.90
2018-12-30T17:44:48.738Z,5.90
2018-12-30T17:47:21.435Z,6.00
2018-12-30T17:49:54.501Z,6.10
2018-12-30T17:52:27.386Z,6.10
2018-12-30T17:55:00.084Z,6.10
2018-12-30T17:57:32.742Z,6.10
2018-12-30T18:00:05.752Z,6.00
2018-12-30T18:02:38.391Z,6.00
2018-12-30T18:05:21.020Z,6.00
2018-12-30T18:07:53.581Z,6.00
2018-12-30T18:10:26.012Z,6.00
2018-12-30T18:12:58.379Z,6.00
2018-12-30T18:15:30.715Z,6.00
2018-12-30T18:18:03.298Z,6.00
2018-12-30T18:20:35.796Z,6.00
2018-12-30T18:23:08.493Z,6.00
2018-12-30T18:25:41.349Z,6.00
2018-12-30T18:28:13.642Z,6.00
2018-12-30T18:30:46.406Z,5.90
2018-12-30T18:33:18.839Z,5.90
2018-12-30T18:35:51.440Z,5.90
2018-12-30T18:38:24.050Z,5.90
2018-12-30T18:40:56.756Z,5.90
2018-12-30T18:43:29.409Z,5.90
2018-12-30T18:46:01.976Z,6.10
2018-12-30T18:48:34.516Z,6.00
2018-12-30T18:51:07.105Z,6.00
2018-12-30T18:53:42.380Z,5.90
2018-12-30T18:56:14.759Z,5.90
2018-12-30T18:58:47.305Z,5.90
2018-12-30T19:01:19.769Z,6.00
2018-12-30T19:03:54.015Z,6.00
2018-12-30T19:06:26.097Z,6.00
2018-12-30T19:08:58.659Z,6.00
2018-12-30T19:11:31.234Z,5.90
2018-12-30T19:14:03.993Z,6.00
2018-12-30T19:16:36.839Z,5.90
2018-12-30T19:19:09.435Z,5.80
2018-12-30T19:21:41.797Z,5.80
2018-12-30T19:24:14.488Z,5.90
2018-12-30T19:26:47.010Z,5.80
2018-12-30T19:29:19.667Z,5.80
2018-12-30T19:31:52.345Z,5.80
2018-12-30T19:34:24.899Z,5.70
2018-12-30T19:36:57.375Z,5.70
2018-12-30T19:39:29.788Z,5.60
2018-12-30T19:42:02.266Z,5.60
2018-12-30T19:44:34.761Z,5.60
2018-12-30T19:47:07.606Z,5.70
2018-12-30T19:49:40.162Z,5.60
2018-12-30T19:52:14.300Z,5.50
2018-12-30T19:54:46.626Z,5.40
2018-12-30T19:57:19.435Z,5.30
2018-12-30T19:59:52.152Z,5.20
2018-12-30T20:02:24.748Z,5.20
2018-12-30T20:04:57.649Z,5.20
2018-12-30T20:07:30.280Z,5.20
2018-12-30T20:10:02.951Z,5.20
2018-12-30T20:12:35.590Z,5.20
2018-12-30T20:15:08.746Z,5.20
2018-12-30T20:17:41.289Z,5.20
2018-12-30T20:20:13.768Z,5.20
2018-12-30T20:22:47.880Z,5.20
2018-12-30T20:25:20.412Z,5.20
2018-12-30T20:27:52.884Z,5.30
2018-12-30T20:30:25.523Z,5.30
2018-12-30T20:32:58.702Z,5.50
2018-12-30T20:35:31.417Z,5.40
2018-12-30T20:38:04.032Z,5.40
2018-12-30T20:40:36.335Z,5.40
2018-12-30T20:43:08.891Z,5.40
2018-12-30T20:45:41.371Z,5.40
2018-12-30T20:48:14.055Z,5.30
2018-12-30T20:50:46.531Z,5.30
2018-12-30T20:53:19.186Z,5.30
2018-12-30T20:55:51.735Z,5.20
2018-12-30T20:58:24.244Z,5.30
2018-12-30T21:00:57.020Z,5.30
2018-12-30T21:03:29.683Z,5.20
2018-12-30T21:06:02.406Z,5.20
2018-12-30T21:08:34.854Z,5.20
2018-12-30T21:11:07.256Z,5.20
2018-12-30T21:13:39.658Z,5.20
2018-12-30T21:16:12.275Z,5.30
2018-12-30T21:18:44.960Z,5.30
2018-12-30T21:21:17.975Z,5.30
2018-12-30T21:23:50.700Z,5.30
2018-12-30T21:26:23.027Z,5.40
2018-12-30T21:28:55.698Z,5.40
2018-12-30T21:31:39.281Z,5.40
2018-12-30T21:34:12.069Z,5.40
2018-12-30T21:36:45.894Z,5.40
2018-12-30T21:39:18.278Z,5.40
2018-12-30T21:41:50.719Z,5.40
2018-12-30T21:44:24.870Z,5.40
2018-12-30T21:46:58.436Z,5.50
2018-12-30T21:49:31.202Z,5.50
2018-12-30T21:52:03.810Z,5.40
2018-12-30T21:54:36.294Z,5.40
2018-12-30T21:57:08.821Z,5.40
2018-12-30T21:59:41.240Z,5.40
2018-12-30T22:02:14.139Z,5.40
2018-12-30T22:04:46.933Z,5.40
2018-12-30T22:07:19.793Z,5.40
2018-12-30T22:09:52.404Z,5.30
2018-12-30T22:12:25.171Z,5.30
2018-12-30T22:14:57.811Z,5.30
2018-12-30T22:17:30.464Z,5.30
2018-12-30T22:20:03.094Z,5.30
2018-12-30T22:22:35.517Z,5.30
2018-12-30T22:25:07.997Z,5.40
2018-12-30T22:27:40.452Z,5.30
2018-12-30T22:30:13.212Z,5.30
2018-12-30T22:32:45.631Z,5.30
2018-12-30T22:35:17.888Z,5.40
2018-12-30T22:37:50.331Z,5.40
2018-12-30T22:40:24.322Z,5.40
2018-12-30T22:42:56.827Z,5.40
2018-12-30T22:45:29.363Z,5.30
2018-12-30T22:48:01.917Z,5.20
2018-12-30T22:50:34.466Z,5.20
2018-12-30T22:53:07.089Z,5.20
2018-12-30T22:55:39.566Z,5.30
2018-12-30T22:58:12.066Z,5.20
2018-12-30T23:00:58.292Z,5.30
2018-12-30T23:03:30.673Z,5.30
2018-12-30T23:06:03.531Z,5.20
2018-12-30T23:08:35.903Z,5.30
2018-12-30T23:11:08.363Z,5.30
2018-12-30T23:13:41.333Z,5.30
2018-12-30T23:16:13.775Z,5.30
2018-12-30T23:18:46.537Z,5.30
2018-12-30T23:21:19.826Z,5.30
2018-12-30T23:23:52.801Z,5.30
2018-12-30T23:26:24.806Z,5.30
2018-12-30T23:28:57.744Z,5.30
2018-12-30T23:31:30.039Z,5.30
2018-12-30T23:34:02.781Z,5.30
2018-12-30T23:36:36.571Z,5.20
2018-12-30T23:39:10.559Z,5.20
2018-12-30T23:41:43.079Z,5.20
2018-12-30T23:44:15.749Z,5.20
2018-12-30T23:46:48.566Z,5.20
2018-12-30T23:49:21.144Z,5.20
2018-12-30T23:51:54.067Z,5.20
2018-12-30T23:54:26.600Z,5.20
2018-12-30T23:56:59.200Z,5.30
2018-12-30T23:59:31.715Z,5.20
